createdAt,value
2019-05-12T00:00:01.287Z,22.32
2019-05-12T00:02:02.926Z,22.28
2019-05-12T00:04:04.535Z,22.24
2019-05-12T00:06:08.624Z,22.22
2019-05-12T00:08:08.444Z,22.22
2019-05-12T00:10:09.488Z,22.24
2019-05-12T00:12:11.131Z,22.00
2019-05-12T00:14:12.729Z,22.28
2019-05-12T00:16:14.342Z,22.29
2019-05-12T00:18:17.963Z,22.33
2019-05-12T00:20:18.308Z,22.36
2019-05-12T00:22:19.308Z,22.37
2019-05-12T00:24:20.924Z,22.36
2019-05-12T00:26:22.526Z,22.34
2019-05-12T00:28:24.128Z,22.31
2019-05-12T00:30:31.385Z,22.26
2019-05-12T00:32:32.966Z,22.24
2019-05-12T00:34:34.567Z,22.26
2019-05-12T00:36:37.968Z,22.23
2019-05-12T00:38:38.235Z,22.23
2019-05-12T00:40:39.826Z,22.22
2019-05-12T00:42:41.180Z,22.21
2019-05-12T00:44:42.803Z,22.19
2019-05-12T00:46:44.407Z,22.21
2019-05-12T00:48:47.788Z,22.23
2019-05-12T00:50:48.530Z,22.22
2019-05-12T00:52:49.340Z,22.19
2019-05-12T00:54:50.986Z,22.20
2019-05-12T00:56:52.581Z,22.19
2019-05-12T00:58:54.193Z,22.17
2019-05-12T01:00:55.770Z,22.18
2019-05-12T01:02:58.183Z,22.19
2019-05-12T01:04:59.028Z,22.20
2019-05-12T01:07:00.615Z,21.93
2019-05-12T01:09:02.259Z,22.18
2019-05-12T01:11:03.863Z,22.16
2019-05-12T01:13:08.169Z,22.16
2019-05-12T01:15:07.479Z,22.14
2019-05-12T01:17:08.864Z,22.16
2019-05-12T01:19:10.457Z,22.14
2019-05-12T01:21:12.067Z,22.15
2019-05-12T01:23:13.657Z,22.16
2019-05-12T01:25:17.478Z,22.18
2019-05-12T01:27:18.071Z,22.25
2019-05-12T01:29:18.579Z,22.25
2019-05-12T01:31:20.179Z,22.25
2019-05-12T01:33:21.778Z,22.33
2019-05-12T01:35:23.393Z,22.36
2019-05-12T01:37:25.003Z,22.33
2019-05-12T01:39:27.749Z,22.37
2019-05-12T01:41:28.763Z,22.37
2019-05-12T01:43:29.948Z,22.37
2019-05-12T01:45:31.538Z,22.36
2019-05-12T01:47:33.161Z,22.36
2019-05-12T01:49:34.750Z,22.37
2019-05-12T01:51:38.262Z,22.37
2019-05-12T01:53:38.045Z,22.38
2019-05-12T01:55:39.636Z,22.34
2019-05-12T01:57:41.252Z,22.35
2019-05-12T01:59:42.842Z,22.35
2019-05-12T02:01:44.438Z,22.38
2019-05-12T02:03:48.076Z,22.42
2019-05-12T02:05:51.704Z,22.44
2019-05-12T02:07:53.352Z,22.46
2019-05-12T02:09:54.946Z,22.51
2019-05-12T02:11:58.224Z,22.55
2019-05-12T02:13:58.172Z,22.56
2019-05-12T02:15:59.762Z,22.56
2019-05-12T02:18:01.342Z,22.56
2019-05-12T02:20:02.952Z,22.61
2019-05-12T02:22:04.586Z,22.61
2019-05-12T02:24:07.767Z,22.61
2019-05-12T02:26:08.220Z,22.61
2019-05-12T02:28:09.663Z,22.58
2019-05-12T02:30:11.180Z,22.61
2019-05-12T02:32:12.791Z,22.63
2019-05-12T02:34:15.693Z,22.62
2019-05-12T02:36:16.070Z,22.60
2019-05-12T02:38:17.660Z,22.57
2019-05-12T02:40:19.304Z,22.53
2019-05-12T02:42:24.207Z,22.52
2019-05-12T02:44:24.743Z,22.60
2019-05-12T02:46:25.542Z,22.64
2019-05-12T02:48:25.936Z,22.64
2019-05-12T02:50:27.582Z,22.60
2019-05-12T02:52:29.178Z,22.58
2019-05-12T02:54:47.073Z,22.60
2019-05-12T02:56:35.195Z,22.56
2019-05-12T02:58:34.813Z,22.56
2019-05-12T03:00:35.927Z,22.59
2019-05-12T03:02:37.316Z,22.58
2019-05-12T03:04:38.929Z,22.66
2019-05-12T03:06:40.546Z,22.63
2019-05-12T03:08:44.770Z,22.64
2019-05-12T03:10:44.900Z,22.65
2019-05-12T03:12:45.469Z,22.65
2019-05-12T03:14:47.058Z,22.66
2019-05-12T03:16:48.644Z,22.66
2019-05-12T03:18:50.229Z,22.66
2019-05-12T03:20:54.039Z,22.65
2019-05-12T03:22:55.427Z,22.63
2019-05-12T03:25:07.834Z,22.64
2019-05-12T03:26:56.799Z,22.64
2019-05-12T03:28:58.389Z,22.70
2019-05-12T03:30:59.997Z,22.74
2019-05-12T03:33:01.581Z,22.72
2019-05-12T03:35:08.407Z,22.72
2019-05-12T03:37:07.722Z,22.71
2019-05-12T03:39:06.564Z,22.67
2019-05-12T03:41:08.227Z,22.69
2019-05-12T03:43:09.861Z,22.73
2019-05-12T03:45:14.739Z,22.72
2019-05-12T03:47:14.499Z,22.69
2019-05-12T03:49:15.577Z,22.65
2019-05-12T03:51:16.658Z,22.60
2019-05-12T03:53:18.316Z,22.57
2019-05-12T03:55:33.432Z,22.56
2019-05-12T03:57:21.569Z,22.56
2019-05-12T03:59:25.566Z,22.57
2019-05-12T04:01:25.591Z,22.61
2019-05-12T04:03:26.536Z,22.60
2019-05-12T04:05:28.131Z,22.64
2019-05-12T04:07:29.741Z,22.65
2019-05-12T04:09:34.653Z,22.67
2019-05-12T04:11:35.640Z,22.67
2019-05-12T04:13:34.634Z,22.67
2019-05-12T04:15:36.265Z,22.66
2019-05-12T04:17:37.918Z,22.67
2019-05-12T04:19:39.533Z,22.72
2019-05-12T04:21:44.370Z,22.72
2019-05-12T04:23:44.337Z,22.72
2019-05-12T04:25:52.234Z,22.73
2019-05-12T04:27:46.177Z,22.73
2019-05-12T04:29:47.771Z,22.72
2019-05-12T04:31:49.380Z,22.71
2019-05-12T04:33:54.466Z,22.70
2019-05-12T04:35:55.254Z,22.72
2019-05-12T04:37:55.311Z,22.70
2019-05-12T04:39:55.931Z,22.69
2019-05-12T04:41:57.532Z,22.69
2019-05-12T04:43:59.163Z,22.70
2019-05-12T04:46:00.751Z,22.74
2019-05-12T04:48:05.223Z,22.76
2019-05-12T04:50:05.374Z,22.76
2019-05-12T04:52:05.637Z,22.83
2019-05-12T04:54:07.267Z,22.90
2019-05-12T04:56:18.971Z,22.92
2019-05-12T04:58:10.506Z,22.92
2019-05-12T05:00:15.412Z,22.88
2019-05-12T05:02:15.290Z,22.89
2019-05-12T05:04:15.804Z,22.88
2019-05-12T05:06:17.109Z,22.83
2019-05-12T05:08:19.878Z,22.56
2019-05-12T05:10:20.420Z,22.75
2019-05-12T05:12:23.897Z,22.71
2019-05-12T05:14:24.819Z,22.73
2019-05-12T05:16:25.371Z,22.69
2019-05-12T05:18:26.990Z,22.64
2019-05-12T05:20:28.562Z,22.60
2019-05-12T05:22:30.204Z,22.60
2019-05-12T05:24:33.871Z,22.66
2019-05-12T05:26:36.969Z,22.69
2019-05-12T05:28:35.087Z,22.74
2019-05-12T05:30:36.696Z,22.79
2019-05-12T05:32:38.343Z,22.80
2019-05-12T05:34:39.964Z,22.78
2019-05-12T05:36:43.360Z,22.76
2019-05-12T05:38:43.753Z,22.85
2019-05-12T05:40:44.886Z,22.80
2019-05-12T05:42:46.474Z,22.84
2019-05-12T05:44:48.066Z,22.81
2019-05-12T05:46:50.241Z,22.81
2019-05-12T05:48:54.136Z,22.82
2019-05-12T05:50:54.016Z,22.83
2019-05-12T05:52:54.895Z,22.82
2019-05-12T05:54:56.539Z,22.68
2019-05-12T05:57:02.837Z,22.83
2019-05-12T05:58:59.802Z,22.87
2019-05-12T06:01:05.943Z,22.89
2019-05-12T06:03:05.449Z,22.90
2019-05-12T06:05:04.826Z,22.80
2019-05-12T06:07:06.425Z,22.79
2019-05-12T06:09:08.020Z,22.89
2019-05-12T06:11:14.848Z,22.87
2019-05-12T06:13:11.276Z,22.83
2019-05-12T06:15:13.530Z,22.80
2019-05-12T06:17:14.679Z,22.75
2019-05-12T06:19:16.228Z,22.69
2019-05-12T06:21:17.836Z,22.67
2019-05-12T06:23:19.421Z,22.59
2019-05-12T06:25:21.005Z,22.58
2019-05-12T06:27:24.338Z,22.57
2019-05-12T06:29:25.132Z,22.58
2019-05-12T06:31:29.822Z,22.65
2019-05-12T06:33:31.550Z,22.70
2019-05-12T06:35:30.902Z,22.75
2019-05-12T06:37:30.916Z,22.76
2019-05-12T06:39:34.341Z,22.79
2019-05-12T06:41:34.197Z,22.78
2019-05-12T06:43:39.579Z,22.75
2019-05-12T06:45:42.333Z,22.76
2019-05-12T06:47:43.886Z,22.75
2019-05-12T06:49:40.759Z,22.79
2019-05-12T06:51:44.409Z,22.78
2019-05-12T06:53:44.392Z,22.78
2019-05-12T06:55:45.712Z,22.79
2019-05-12T06:57:50.146Z,22.79
2019-05-12T06:59:51.225Z,22.78
2019-05-12T07:01:56.138Z,22.79
2019-05-12T07:03:53.369Z,22.78
2019-05-12T07:05:54.053Z,22.79
2019-05-12T07:07:55.701Z,22.79
2019-05-12T07:10:10.421Z,22.81
2019-05-12T07:12:03.883Z,22.82
2019-05-12T07:14:07.220Z,22.82
2019-05-12T07:16:10.044Z,22.83
2019-05-12T07:18:10.379Z,22.84
2019-05-12T07:20:14.524Z,22.84
2019-05-12T07:22:22.378Z,22.83
2019-05-12T07:24:15.184Z,22.94
2019-05-12T07:26:19.459Z,23.01
2019-05-12T07:28:18.471Z,23.06
2019-05-12T07:30:20.127Z,23.05
2019-05-12T07:32:24.466Z,22.96
2019-05-12T07:34:23.990Z,22.90
2019-05-12T07:36:25.100Z,22.47
2019-05-12T07:38:26.748Z,22.68
2019-05-12T07:40:30.131Z,22.62
2019-05-12T07:42:32.407Z,22.60
2019-05-12T07:44:39.732Z,22.57
2019-05-12T07:46:34.225Z,22.54
2019-05-12T07:48:35.236Z,22.54
2019-05-12T07:50:36.900Z,22.52
2019-05-12T07:52:38.493Z,22.49
2019-05-12T07:54:40.114Z,22.51
2019-05-12T07:56:44.038Z,22.50
2019-05-12T07:58:47.548Z,22.49
2019-05-12T08:00:44.988Z,22.48
2019-05-12T08:02:46.611Z,22.17
2019-05-12T08:04:48.245Z,22.41
2019-05-12T08:06:49.848Z,22.42
2019-05-12T08:08:58.104Z,22.42
2019-05-12T08:10:55.866Z,22.43
2019-05-12T08:12:59.578Z,22.44
2019-05-12T08:14:59.374Z,22.45
2019-05-12T08:17:02.049Z,22.47
2019-05-12T08:18:59.750Z,22.44
2019-05-12T08:21:03.552Z,22.43
2019-05-12T08:23:05.785Z,22.41
2019-05-12T08:25:04.827Z,22.41
2019-05-12T08:27:06.726Z,22.40
2019-05-12T08:29:10.401Z,22.39
2019-05-12T08:31:09.792Z,22.38
2019-05-12T08:33:11.404Z,22.39
2019-05-12T08:35:13.915Z,22.38
2019-05-12T08:37:14.661Z,22.35
2019-05-12T08:39:21.004Z,22.32
2019-05-12T08:41:17.941Z,22.28
2019-05-12T08:43:19.532Z,22.27
2019-05-12T08:45:25.708Z,22.25
2019-05-12T08:47:23.883Z,22.25
2019-05-12T08:49:24.439Z,22.27
2019-05-12T08:51:26.077Z,22.27
2019-05-12T08:53:27.668Z,22.27
2019-05-12T08:55:31.229Z,22.26
2019-05-12T08:57:34.805Z,22.27
2019-05-12T08:59:34.186Z,22.31
2019-05-12T09:01:34.480Z,22.32
2019-05-12T09:03:35.864Z,22.31
2019-05-12T09:05:38.528Z,22.31
2019-05-12T09:07:39.953Z,22.32
2019-05-12T09:09:40.832Z,22.33
2019-05-12T09:11:44.091Z,22.33
2019-05-12T09:13:44.100Z,22.29
2019-05-12T09:15:45.690Z,22.26
2019-05-12T09:17:52.467Z,22.28
2019-05-12T09:19:49.000Z,22.28
2019-05-12T09:21:51.060Z,22.28
2019-05-12T09:23:55.577Z,22.37
2019-05-12T09:25:57.220Z,22.38
2019-05-12T09:27:55.996Z,22.42
2019-05-12T09:29:59.064Z,22.49
2019-05-12T09:32:04.536Z,22.52
2019-05-12T09:34:05.935Z,22.50
2019-05-12T09:36:04.315Z,22.49
2019-05-12T09:38:06.198Z,22.43
2019-05-12T09:40:06.008Z,22.39
2019-05-12T09:42:07.636Z,22.40
2019-05-12T09:44:09.220Z,22.37
2019-05-12T09:46:10.799Z,22.32
2019-05-12T09:48:14.074Z,22.31
2019-05-12T09:50:18.357Z,22.33
2019-05-12T09:52:22.197Z,22.42
2019-05-12T09:54:17.428Z,22.42
2019-05-12T09:56:19.021Z,22.41
2019-05-12T09:58:27.279Z,22.43
2019-05-12T10:00:23.930Z,22.39
2019-05-12T10:02:23.940Z,22.39
2019-05-12T10:04:25.548Z,22.36
2019-05-12T10:06:27.183Z,22.36
2019-05-12T10:08:29.289Z,22.33
2019-05-12T10:10:38.262Z,22.31
2019-05-12T10:12:38.814Z,22.37
2019-05-12T10:14:33.675Z,22.41
2019-05-12T10:16:39.557Z,22.34
2019-05-12T10:18:36.951Z,22.52
2019-05-12T10:20:39.958Z,22.51
2019-05-12T10:22:40.506Z,22.42
2019-05-12T10:24:54.597Z,22.20
2019-05-12T10:26:48.928Z,22.29
2019-05-12T10:28:52.029Z,22.32
2019-05-12T10:30:52.071Z,22.39
2019-05-12T10:32:48.668Z,22.35
2019-05-12T10:34:51.192Z,22.33
2019-05-12T10:36:53.825Z,22.32
2019-05-12T10:38:53.882Z,22.31
2019-05-12T10:40:55.264Z,22.31
2019-05-12T10:42:56.872Z,22.33
2019-05-12T10:44:58.711Z,22.37
2019-05-12T10:47:00.308Z,22.36
2019-05-12T10:49:03.918Z,22.24
2019-05-12T10:51:03.556Z,22.31
2019-05-12T10:53:09.727Z,22.26
2019-05-12T10:55:06.875Z,22.24
2019-05-12T10:57:08.455Z,22.21
2019-05-12T10:59:10.045Z,22.19
2019-05-12T11:01:13.394Z,22.20
2019-05-12T11:03:15.580Z,22.18
2019-05-12T11:05:21.229Z,22.20
2019-05-12T11:07:16.710Z,22.26
2019-05-12T11:09:21.333Z,22.25
2019-05-12T11:11:19.969Z,22.18
2019-05-12T11:13:23.335Z,22.12
2019-05-12T11:15:24.549Z,22.07
2019-05-12T11:17:24.957Z,22.06
2019-05-12T11:19:26.560Z,22.05
2019-05-12T11:21:28.166Z,22.05
2019-05-12T11:23:29.792Z,21.91
2019-05-12T11:25:33.879Z,22.13
2019-05-12T11:27:34.496Z,22.22
2019-05-12T11:29:45.738Z,22.19
2019-05-12T11:31:36.364Z,22.15
2019-05-12T11:33:38.012Z,22.10
2019-05-12T11:35:39.600Z,22.06
2019-05-12T11:37:41.184Z,22.02
2019-05-12T11:39:45.302Z,22.00
2019-05-12T11:41:44.504Z,22.03
2019-05-12T11:43:46.113Z,22.20
2019-05-12T11:45:47.690Z,22.36
2019-05-12T11:47:49.303Z,22.46
2019-05-12T11:49:53.508Z,22.52
2019-05-12T11:51:54.314Z,22.49
2019-05-12T11:53:54.389Z,22.39
2019-05-12T11:55:56.002Z,22.37
2019-05-12T11:58:00.248Z,22.35
2019-05-12T12:00:02.291Z,22.19
2019-05-12T12:02:01.114Z,22.13
2019-05-12T12:04:03.712Z,22.34
2019-05-12T12:06:04.500Z,22.35
2019-05-12T12:08:06.097Z,22.36
2019-05-12T12:10:07.870Z,22.21
2019-05-12T12:12:09.733Z,22.42
2019-05-12T12:14:11.363Z,22.15
2019-05-12T12:16:15.027Z,22.30
2019-05-12T12:18:16.682Z,22.14
2019-05-12T12:20:22.422Z,22.04
2019-05-12T12:22:20.343Z,21.93
2019-05-12T12:24:29.987Z,21.81
2019-05-12T12:26:26.210Z,21.69
2019-05-12T12:28:24.916Z,21.64
2019-05-12T12:30:26.513Z,21.61
2019-05-12T12:32:28.133Z,21.42
2019-05-12T12:34:30.482Z,21.37
2019-05-12T12:36:31.415Z,21.72
2019-05-12T12:38:33.456Z,22.06
2019-05-12T12:40:34.713Z,22.23
2019-05-12T12:42:43.682Z,22.32
2019-05-12T12:44:38.569Z,22.12
2019-05-12T12:46:40.192Z,22.18
2019-05-12T12:48:43.824Z,22.75
2019-05-12T12:50:44.537Z,22.89
2019-05-12T12:52:48.837Z,22.81
2019-05-12T12:54:46.823Z,22.40
2019-05-12T12:56:48.463Z,22.62
2019-05-12T12:58:50.095Z,22.82
2019-05-12T13:00:56.339Z,22.85
2019-05-12T13:02:53.432Z,22.88
2019-05-12T13:04:55.020Z,22.89
2019-05-12T13:06:56.605Z,22.99
2019-05-12T13:08:58.259Z,23.02
2019-05-12T13:10:59.853Z,22.98
2019-05-12T13:13:04.204Z,22.96
2019-05-12T13:15:03.878Z,23.18
2019-05-12T13:17:04.788Z,23.18
2019-05-12T13:19:12.330Z,23.03
2019-05-12T13:21:08.060Z,23.05
2019-05-12T13:23:09.648Z,23.35
2019-05-12T13:25:11.254Z,23.18
2019-05-12T13:27:14.174Z,23.01
2019-05-12T13:29:14.548Z,23.16
2019-05-12T13:31:16.378Z,23.18
2019-05-12T13:33:18.423Z,23.30
2019-05-12T13:35:20.269Z,23.75
2019-05-12T13:37:23.075Z,23.76
2019-05-12T13:39:24.219Z,23.57
2019-05-12T13:41:24.500Z,23.40
2019-05-12T13:43:26.089Z,23.56
2019-05-12T13:45:27.836Z,23.80
2019-05-12T13:47:37.704Z,23.91
2019-05-12T13:49:36.222Z,24.13
2019-05-12T13:51:33.358Z,24.10
2019-05-12T13:53:34.443Z,24.04
2019-05-12T13:55:39.411Z,24.04
2019-05-12T13:57:37.711Z,24.06
2019-05-12T13:59:39.322Z,24.18
2019-05-12T14:01:42.838Z,24.21
2019-05-12T14:03:46.222Z,24.10
2019-05-12T14:05:50.354Z,23.99
2019-05-12T14:07:50.015Z,24.07
2019-05-12T14:09:47.816Z,24.12
2019-05-12T14:11:49.700Z,24.07
2019-05-12T14:13:51.317Z,24.04
2019-05-12T14:15:53.612Z,24.01
2019-05-12T14:17:54.611Z,24.08
2019-05-12T14:19:56.216Z,24.04
2019-05-12T14:21:57.842Z,23.93
2019-05-12T14:23:59.524Z,23.95
2019-05-12T14:26:02.361Z,24.11
2019-05-12T14:28:06.910Z,24.07
2019-05-12T14:30:09.919Z,24.07
2019-05-12T14:32:06.205Z,23.97
2019-05-12T14:34:10.324Z,23.63
2019-05-12T14:36:15.851Z,23.60
2019-05-12T14:38:11.068Z,23.74
2019-05-12T14:40:13.362Z,23.83
2019-05-12T14:42:14.292Z,23.89
2019-05-12T14:44:15.906Z,23.99
2019-05-12T14:46:17.478Z,24.01
2019-05-12T14:48:19.080Z,24.12
2019-05-12T14:50:20.697Z,24.08
2019-05-12T14:52:22.304Z,24.05
2019-05-12T14:54:24.039Z,24.12
2019-05-12T14:56:25.664Z,24.15
2019-05-12T14:58:27.276Z,24.15
2019-05-12T15:00:29.531Z,24.04
2019-05-12T15:02:33.035Z,23.77
2019-05-12T15:04:32.814Z,23.84
2019-05-12T15:06:34.467Z,23.69
2019-05-12T15:08:40.080Z,23.72
2019-05-12T15:10:37.682Z,23.90
2019-05-12T15:12:39.282Z,23.88
2019-05-12T15:14:40.872Z,23.86
2019-05-12T15:16:44.832Z,23.88
2019-05-12T15:18:46.727Z,23.87
2019-05-12T15:20:49.856Z,23.86
2019-05-12T15:22:51.581Z,23.84
2019-05-12T15:24:54.037Z,23.93
2019-05-12T15:26:56.394Z,23.99
2019-05-12T15:28:54.246Z,23.98
2019-05-12T15:30:54.333Z,23.99
2019-05-12T15:32:55.752Z,24.02
2019-05-12T15:34:57.355Z,24.06
2019-05-12T15:37:00.333Z,24.07
2019-05-12T15:39:00.631Z,24.05
2019-05-12T15:41:04.290Z,24.24
2019-05-12T15:43:05.493Z,24.33
2019-05-12T15:45:06.513Z,24.26
2019-05-12T15:47:07.279Z,23.79
2019-05-12T15:49:09.105Z,23.55
2019-05-12T15:51:10.536Z,23.39
2019-05-12T15:53:16.292Z,23.31
2019-05-12T15:55:13.909Z,23.23
2019-05-12T15:57:15.537Z,23.20
2019-05-12T15:59:17.605Z,23.16
2019-05-12T16:01:18.831Z,23.10
2019-05-12T16:03:20.406Z,23.06
2019-05-12T16:05:28.793Z,23.05
2019-05-12T16:07:24.252Z,23.02
2019-05-12T16:09:25.506Z,23.00
2019-05-12T16:11:27.128Z,22.97
2019-05-12T16:13:28.735Z,22.88
2019-05-12T16:15:30.343Z,22.87
2019-05-12T16:17:34.085Z,22.88
2019-05-12T16:19:34.457Z,23.25
2019-05-12T16:21:35.301Z,23.36
2019-05-12T16:23:36.944Z,23.41
2019-05-12T16:25:38.553Z,23.60
2019-05-12T16:27:40.178Z,23.57
2019-05-12T16:29:45.608Z,23.75
2019-05-12T16:31:45.558Z,23.82
2019-05-12T16:33:45.135Z,23.79
2019-05-12T16:35:46.714Z,23.90
2019-05-12T16:37:48.286Z,23.88
2019-05-12T16:39:49.870Z,23.97
2019-05-12T16:41:51.520Z,23.99
2019-05-12T16:43:53.776Z,23.97
2019-05-12T16:45:54.782Z,23.93
2019-05-12T16:47:59.329Z,23.91
2019-05-12T16:49:58.008Z,23.90
2019-05-12T16:51:59.643Z,23.78
2019-05-12T16:54:03.479Z,23.33
2019-05-12T16:56:04.153Z,23.30
2019-05-12T16:58:04.603Z,23.23
2019-05-12T17:00:07.138Z,23.19
2019-05-12T17:02:09.830Z,23.12
2019-05-12T17:04:09.588Z,23.12
2019-05-12T17:06:11.189Z,23.05
2019-05-12T17:08:13.850Z,23.03
2019-05-12T17:10:16.496Z,23.02
2019-05-12T17:12:16.162Z,22.99
2019-05-12T17:14:17.749Z,23.01
2019-05-12T17:16:19.356Z,22.94
2019-05-12T17:18:24.271Z,22.95
2019-05-12T17:20:22.590Z,22.85
2019-05-12T17:22:24.191Z,22.85
2019-05-12T17:24:25.776Z,22.85
2019-05-12T17:26:27.362Z,22.80
2019-05-12T17:28:28.962Z,22.80
2019-05-12T17:30:30.544Z,22.72
2019-05-12T17:32:32.168Z,22.72
2019-05-12T17:34:34.127Z,22.77
2019-05-12T17:36:35.460Z,22.77
2019-05-12T17:38:37.076Z,22.77
2019-05-12T17:40:38.667Z,22.78
2019-05-12T17:42:40.258Z,22.79
2019-05-12T17:44:43.600Z,22.76
2019-05-12T17:46:44.142Z,22.77
2019-05-12T17:48:45.228Z,22.76
2019-05-12T17:50:50.474Z,22.73
2019-05-12T17:52:50.458Z,22.72
2019-05-12T17:54:50.118Z,22.67
2019-05-12T17:56:51.727Z,22.37
2019-05-12T17:58:53.319Z,22.10
2019-05-12T18:00:54.956Z,21.48
2019-05-12T18:03:14.512Z,21.27
2019-05-12T18:05:01.274Z,21.85
2019-05-12T18:07:05.945Z,22.18
2019-05-12T18:09:03.751Z,22.28
2019-05-12T18:11:03.711Z,22.44
2019-05-12T18:13:04.963Z,22.71
2019-05-12T18:15:06.568Z,22.54
2019-05-12T18:17:08.838Z,22.59
2019-05-12T18:19:15.363Z,22.55
2019-05-12T18:21:13.206Z,22.73
2019-05-12T18:23:13.513Z,22.70
2019-05-12T18:25:15.028Z,22.82
2019-05-12T18:27:16.532Z,22.82
2019-05-12T18:29:18.120Z,22.50
2019-05-12T18:31:19.850Z,22.83
2019-05-12T18:33:30.715Z,23.06
2019-05-12T18:35:23.137Z,23.26
2019-05-12T18:37:24.728Z,23.35
2019-05-12T18:39:26.312Z,23.46
2019-05-12T18:41:27.958Z,23.58
2019-05-12T18:43:29.545Z,23.71
2019-05-12T18:45:31.169Z,23.45
2019-05-12T18:47:36.369Z,23.35
2019-05-12T18:49:34.475Z,23.76
2019-05-12T18:51:36.117Z,23.90
2019-05-12T18:53:37.704Z,23.95
2019-05-12T18:55:40.330Z,23.95
2019-05-12T18:57:47.926Z,24.00
2019-05-12T18:59:46.170Z,23.88
2019-05-12T19:01:44.313Z,24.00
2019-05-12T19:03:50.802Z,24.01
2019-05-12T19:05:47.575Z,23.99
2019-05-12T19:07:49.187Z,24.08
2019-05-12T19:09:50.758Z,24.08
2019-05-12T19:11:53.631Z,24.20
2019-05-12T19:13:57.112Z,24.24
2019-05-12T19:16:02.459Z,24.30
2019-05-12T19:17:57.319Z,24.27
2019-05-12T19:19:59.839Z,23.83
2019-05-12T19:22:08.534Z,23.59
2019-05-12T19:24:03.559Z,23.80
2019-05-12T19:26:04.350Z,23.97
2019-05-12T19:28:10.337Z,24.06
2019-05-12T19:30:07.414Z,24.07
2019-05-12T19:32:09.872Z,24.00
2019-05-12T19:34:19.825Z,24.01
2019-05-12T19:36:13.589Z,24.03
2019-05-12T19:38:15.632Z,24.01
2019-05-12T19:40:17.695Z,24.15
2019-05-12T19:42:20.434Z,24.24
2019-05-12T19:44:25.327Z,24.27
2019-05-12T19:46:23.944Z,24.22
2019-05-12T19:48:27.293Z,24.26
2019-05-12T19:50:25.022Z,24.28
2019-05-12T19:52:26.608Z,24.31
2019-05-12T19:54:30.970Z,24.33
2019-05-12T19:56:35.760Z,24.39
2019-05-12T19:58:34.054Z,24.34
2019-05-12T20:00:34.392Z,24.37
2019-05-12T20:02:36.012Z,24.33
2019-05-12T20:04:45.547Z,24.29
2019-05-12T20:06:39.324Z,24.25
2019-05-12T20:08:40.931Z,24.24
2019-05-12T20:10:44.656Z,24.24
2019-05-12T20:12:48.845Z,24.23
2019-05-12T20:14:45.905Z,23.97
2019-05-12T20:16:47.550Z,23.56
2019-05-12T20:18:49.365Z,23.86
2019-05-12T20:20:50.766Z,24.01
2019-05-12T20:22:54.172Z,24.05
2019-05-12T20:24:54.069Z,24.07
2019-05-12T20:26:55.670Z,24.05
2019-05-12T20:28:57.259Z,24.03
2019-05-12T20:31:01.176Z,24.01
2019-05-12T20:33:00.583Z,23.99
2019-05-12T20:35:04.284Z,24.02
2019-05-12T20:37:07.481Z,24.01
2019-05-12T20:39:10.115Z,24.02
2019-05-12T20:41:10.863Z,23.74
2019-05-12T20:43:11.542Z,24.00
2019-05-12T20:45:10.442Z,23.93
2019-05-12T20:47:13.985Z,23.90
2019-05-12T20:49:14.906Z,23.86
2019-05-12T20:51:19.978Z,23.89
2019-05-12T20:53:17.007Z,23.90
2019-05-12T20:55:18.595Z,23.97
2019-05-12T20:57:20.179Z,23.98
2019-05-12T20:59:27.745Z,23.98
2019-05-12T21:01:28.209Z,23.99
2019-05-12T21:03:25.096Z,23.99
2019-05-12T21:05:26.699Z,23.95
2019-05-12T21:07:28.322Z,23.93
2019-05-12T21:09:29.967Z,23.91
2019-05-12T21:11:33.725Z,23.93
2019-05-12T21:13:34.493Z,23.93
2019-05-12T21:15:40.770Z,23.91
2019-05-12T21:17:42.674Z,23.69
2019-05-12T21:19:40.154Z,22.70
2019-05-12T21:21:39.955Z,22.78
2019-05-12T21:23:47.922Z,23.37
2019-05-12T21:25:51.959Z,23.62
2019-05-12T21:27:47.796Z,23.71
2019-05-12T21:29:46.492Z,23.73
2019-05-12T21:31:48.080Z,23.72
2019-05-12T21:33:49.672Z,23.72
2019-05-12T21:35:51.245Z,23.75
2019-05-12T21:37:53.773Z,23.73
2019-05-12T21:39:54.502Z,23.70
2019-05-12T21:41:56.088Z,23.70
2019-05-12T21:43:59.980Z,23.74
2019-05-12T21:46:01.143Z,23.81
2019-05-12T21:48:03.570Z,23.83
2019-05-12T21:50:03.654Z,23.82
2019-05-12T21:52:06.583Z,23.80
2019-05-12T21:54:06.817Z,23.76
2019-05-12T21:56:08.364Z,23.75
2019-05-12T21:58:12.153Z,23.73
2019-05-12T22:00:18.262Z,23.77
2019-05-12T22:02:14.672Z,23.75
2019-05-12T22:04:14.998Z,23.85
2019-05-12T22:06:21.528Z,23.92
2019-05-12T22:08:22.110Z,23.91
2019-05-12T22:10:25.526Z,23.87
2019-05-12T22:12:23.501Z,23.88
2019-05-12T22:14:24.028Z,23.85
2019-05-12T22:16:29.514Z,23.81
2019-05-12T22:18:26.576Z,23.79
2019-05-12T22:20:28.159Z,23.76
2019-05-12T22:22:30.137Z,23.78
2019-05-12T22:24:37.101Z,23.82
2019-05-12T22:26:39.684Z,24.16
2019-05-12T22:28:34.792Z,23.68
2019-05-12T22:30:36.419Z,23.70
2019-05-12T22:32:38.028Z,23.93
2019-05-12T22:34:42.030Z,24.18
2019-05-12T22:36:45.455Z,24.26
2019-05-12T22:38:44.387Z,24.27
2019-05-12T22:40:49.158Z,24.01
2019-05-12T22:42:50.535Z,23.71
2019-05-12T22:44:53.030Z,23.47
2019-05-12T22:46:49.722Z,23.31
2019-05-12T22:48:53.427Z,23.19
2019-05-12T22:50:54.988Z,23.12
2019-05-12T22:52:54.732Z,23.05
2019-05-12T22:54:56.330Z,23.01
2019-05-12T22:56:57.935Z,22.94
2019-05-12T22:59:00.271Z,22.88
2019-05-12T23:01:03.147Z,22.83
2019-05-12T23:03:07.103Z,22.79
2019-05-12T23:05:04.600Z,22.49
2019-05-12T23:07:06.203Z,22.72
2019-05-12T23:09:07.792Z,22.67
2019-05-12T23:11:09.376Z,22.63
2019-05-12T23:13:13.428Z,22.61
2019-05-12T23:15:13.610Z,22.59
2019-05-12T23:17:14.284Z,22.58
2019-05-12T23:19:15.876Z,22.59
2019-05-12T23:21:17.780Z,22.59
2019-05-12T23:23:19.137Z,22.53
2019-05-12T23:25:21.722Z,22.55
2019-05-12T23:27:25.351Z,22.54
2019-05-12T23:29:26.800Z,22.50
2019-05-12T23:31:30.002Z,22.48
2019-05-12T23:33:32.154Z,22.47
2019-05-12T23:35:37.369Z,22.45
2019-05-12T23:37:38.455Z,22.43
2019-05-12T23:39:37.896Z,22.41
2019-05-12T23:41:34.544Z,22.38
2019-05-12T23:43:35.770Z,22.37
2019-05-12T23:45:37.411Z,22.36
2019-05-12T23:47:38.999Z,22.34
2019-05-12T23:49:40.630Z,22.33
2019-05-12T23:51:43.843Z,22.31
2019-05-12T23:53:43.900Z,22.31
2019-05-12T23:55:45.493Z,22.32
2019-05-12T23:57:47.104Z,22.33
2019-05-12T23:59:48.720Z,22.34
